createdAt,value
2022-11-25T00:01:34.869Z,10.70
2022-11-25T00:06:35.759Z,12.02
2022-11-25T00:11:36.695Z,12.18
2022-11-25T00:16:35.442Z,11.18
2022-11-25T00:21:34.633Z,11.32
2022-11-25T00:26:35.065Z,11.02
2022-11-25T00:31:38.296Z,10.25
2022-11-25T00:36:38.113Z,9.98
2022-11-25T00:41:55.506Z,9.98
2022-11-25T00:46:54.239Z,9.35
2022-11-25T00:51:53.337Z,9.95
2022-11-25T00:56:52.491Z,9.95
2022-11-25T01:01:51.504Z,8.75
2022-11-25T01:06:50.398Z,9.55
2022-11-25T01:11:53.099Z,9.32
2022-11-25T01:16:52.495Z,10.55
2022-11-25T01:21:51.277Z,10.18
2022-11-25T01:26:50.032Z,9.68
2022-11-25T01:31:48.941Z,9.02
2022-11-25T01:36:48.516Z,9.55
2022-11-25T01:41:48.276Z,8.50
2022-11-25T01:46:56.257Z,8.40
2022-11-25T01:52:16.829Z,8.60
2022-11-25T01:57:24.783Z,8.93
2022-11-25T02:02:25.114Z,8.27
2022-11-25T02:07:33.156Z,9.13
2022-11-25T02:12:34.412Z,9.52
2022-11-25T02:17:34.133Z,8.88
2022-11-25T02:23:08.591Z,10.05
2022-11-25T02:28:10.796Z,8.85
2022-11-25T02:33:10.723Z,9.13
2022-11-25T02:38:10.034Z,9.77
2022-11-25T02:43:09.364Z,8.95
2022-11-25T02:48:09.033Z,9.38
2022-11-25T02:53:08.225Z,8.93
2022-11-25T02:58:08.460Z,9.40
2022-11-25T03:03:07.728Z,11.40
2022-11-25T03:08:07.553Z,10.80
2022-11-25T03:13:09.475Z,10.40
2022-11-25T03:18:11.638Z,10.00
2022-11-25T03:23:10.538Z,9.43
2022-11-25T03:28:09.296Z,9.10
2022-11-25T03:33:08.113Z,8.75
2022-11-25T03:38:06.935Z,9.05
2022-11-25T03:43:08.533Z,9.48
2022-11-25T03:48:07.266Z,7.90
2022-11-25T03:53:06.149Z,8.55
2022-11-25T03:58:04.955Z,8.50
2022-11-25T04:03:04.721Z,10.02
2022-11-25T04:08:05.264Z,8.20
2022-11-25T04:13:05.484Z,8.23
2022-11-25T04:18:08.667Z,8.73
2022-11-25T04:23:08.532Z,8.32
2022-11-25T04:28:13.832Z,8.63
2022-11-25T04:33:13.406Z,8.27
2022-11-25T04:38:13.350Z,9.00
2022-11-25T04:43:12.790Z,7.35
2022-11-25T04:48:18.938Z,8.50
2022-11-25T04:53:19.098Z,8.82
2022-11-25T04:58:37.893Z,8.02
2022-11-25T05:03:37.764Z,7.97
2022-11-25T05:08:36.837Z,7.63
2022-11-25T05:13:35.776Z,8.43
2022-11-25T05:18:34.816Z,7.38
2022-11-25T05:23:34.138Z,7.90
2022-11-25T05:28:33.065Z,8.48
2022-11-25T05:33:32.552Z,3.85
2022-11-25T05:38:31.488Z,5.88
2022-11-25T05:43:31.213Z,6.28
2022-11-25T05:48:31.893Z,7.10
2022-11-25T05:53:31.134Z,7.82
2022-11-25T05:58:31.073Z,8.18
2022-11-25T06:03:31.502Z,8.05
2022-11-25T06:08:32.071Z,8.43
2022-11-25T06:13:30.826Z,11.20
2022-11-25T06:18:29.723Z,6.68
2022-11-25T06:23:28.634Z,7.43
2022-11-25T06:28:27.748Z,6.10
2022-11-25T06:33:26.534Z,6.60
2022-11-25T06:38:26.545Z,5.97
2022-11-25T06:43:25.436Z,4.65
2022-11-25T06:48:24.140Z,5.20
2022-11-25T06:53:24.278Z,5.75
2022-11-25T06:58:35.510Z,6.53
2022-11-25T07:03:36.621Z,6.93
2022-11-25T07:08:36.153Z,7.43
2022-11-25T07:13:35.115Z,10.40
2022-11-25T07:18:36.128Z,10.60
2022-11-25T07:23:36.009Z,9.80
2022-11-25T07:28:35.215Z,10.40
2022-11-25T07:33:34.578Z,10.00
2022-11-25T07:38:34.353Z,7.78
2022-11-25T07:43:33.563Z,8.07
2022-11-25T07:48:32.688Z,7.00
2022-11-25T07:53:31.460Z,6.97
2022-11-25T07:58:30.241Z,6.82
2022-11-25T08:03:29.001Z,7.50
2022-11-25T08:08:27.736Z,7.10
2022-11-25T08:13:26.866Z,7.70
2022-11-25T08:18:25.561Z,7.90
2022-11-25T08:23:24.268Z,7.38
2022-11-25T08:28:23.281Z,7.07
2022-11-25T08:33:22.063Z,8.55
2022-11-25T08:38:20.894Z,8.00
2022-11-25T08:43:26.383Z,7.82
2022-11-25T08:48:27.906Z,8.88
2022-11-25T08:53:26.704Z,8.20
2022-11-25T08:58:25.432Z,8.23
2022-11-25T09:03:24.254Z,8.98
2022-11-25T09:08:23.197Z,8.98
2022-11-25T09:13:22.106Z,9.55
2022-11-25T09:18:25.721Z,8.55
2022-11-25T09:23:25.305Z,9.93
2022-11-25T09:28:25.716Z,9.82
2022-11-25T09:33:24.489Z,10.60
2022-11-25T09:38:23.285Z,11.38
2022-11-25T09:44:25.172Z,11.05
2022-11-25T09:49:42.685Z,9.70
2022-11-25T09:55:11.601Z,9.15
2022-11-25T10:00:20.808Z,9.57
2022-11-25T10:05:36.564Z,8.88
2022-11-25T10:10:45.278Z,9.10
2022-11-25T10:15:49.045Z,8.93
2022-11-25T10:20:50.908Z,8.85
2022-11-25T10:25:57.208Z,7.82
2022-11-25T10:31:04.979Z,8.82
2022-11-25T10:36:03.700Z,8.88
2022-11-25T10:41:04.063Z,9.13
2022-11-25T10:46:05.668Z,9.55
2022-11-25T10:51:21.613Z,9.57
2022-11-25T10:56:20.302Z,9.57
2022-11-25T11:01:25.538Z,9.10
2022-11-25T11:06:35.438Z,8.15
2022-11-25T11:11:47.536Z,8.27
2022-11-25T11:16:54.085Z,9.02
2022-11-25T11:21:53.654Z,9.25
2022-11-25T11:27:20.368Z,7.78
2022-11-25T11:32:24.284Z,7.90
2022-11-25T11:37:44.554Z,7.88
2022-11-25T11:42:49.335Z,8.35
2022-11-25T11:48:21.480Z,8.43
2022-11-25T11:53:26.559Z,7.32
2022-11-25T11:58:43.999Z,7.55
2022-11-25T12:03:57.257Z,7.88
2022-11-25T12:09:10.255Z,7.40
2022-11-25T12:14:21.130Z,7.78
2022-11-25T12:19:29.082Z,8.20
2022-11-25T12:24:40.445Z,7.15
2022-11-25T12:29:57.395Z,7.95
2022-11-25T12:35:05.418Z,7.55
2022-11-25T12:40:18.942Z,8.15
2022-11-25T12:45:22.697Z,7.35
2022-11-25T12:50:50.453Z,8.35
2022-11-25T12:55:49.218Z,8.40
2022-11-25T13:00:51.194Z,8.18
2022-11-25T13:05:49.963Z,8.77
2022-11-25T13:11:07.601Z,7.22
2022-11-25T13:16:08.991Z,8.77
2022-11-25T13:21:10.871Z,7.82
2022-11-25T13:26:36.706Z,8.23
2022-11-25T13:31:58.931Z,8.30
2022-11-25T13:37:22.502Z,8.18
2022-11-25T13:42:27.991Z,7.78
2022-11-25T13:47:43.562Z,8.77
2022-11-25T13:57:44.311Z,7.10
2022-11-25T14:02:49.947Z,8.30
2022-11-25T14:08:25.821Z,9.50
2022-11-25T14:14:02.120Z,8.60
2022-11-25T14:24:41.087Z,9.88
2022-11-25T14:29:51.221Z,9.18
2022-11-25T14:35:00.305Z,9.75
2022-11-25T14:40:06.777Z,10.30
2022-11-25T14:45:31.062Z,9.80
2022-11-25T14:50:38.004Z,9.35
2022-11-25T14:55:37.097Z,9.55
2022-11-25T15:01:09.855Z,10.80
2022-11-25T15:06:14.021Z,11.23
2022-11-25T15:11:17.448Z,11.27
2022-11-25T15:16:19.843Z,11.13
2022-11-25T15:21:28.874Z,10.85
2022-11-25T15:26:30.758Z,10.88
2022-11-25T15:31:35.314Z,10.43
2022-11-25T15:36:34.229Z,10.70
2022-11-25T15:41:36.083Z,11.05
2022-11-25T15:46:36.190Z,12.13
2022-11-25T15:51:43.446Z,11.07
2022-11-25T15:56:49.575Z,11.63
2022-11-25T16:01:48.612Z,11.20
2022-11-25T16:06:56.514Z,11.85
2022-11-25T16:12:06.004Z,11.90
2022-11-25T16:22:05.762Z,11.98
2022-11-25T16:27:05.810Z,12.70
2022-11-25T16:32:23.493Z,10.95
2022-11-25T16:37:22.751Z,10.95
2022-11-25T16:42:22.636Z,12.20
2022-11-25T16:47:23.034Z,11.40
2022-11-25T16:52:21.787Z,12.93
2022-11-25T16:57:22.025Z,12.07
2022-11-25T17:02:21.959Z,12.07
2022-11-25T17:07:36.427Z,12.35
2022-11-25T17:12:36.091Z,14.18
2022-11-25T17:17:35.222Z,13.65
2022-11-25T17:22:39.112Z,13.40
2022-11-25T17:27:38.936Z,13.68
2022-11-25T17:32:37.718Z,13.48
2022-11-25T17:37:36.516Z,12.45
2022-11-25T17:42:35.401Z,11.80
2022-11-25T17:47:34.191Z,12.77
2022-11-25T17:52:32.963Z,12.77
2022-11-25T17:57:31.872Z,12.50
2022-11-25T18:02:30.689Z,12.15
2022-11-25T18:07:29.576Z,13.18
2022-11-25T18:12:30.877Z,13.40
2022-11-25T18:17:29.631Z,13.15
2022-11-25T18:22:30.632Z,13.45
2022-11-25T18:27:31.152Z,11.57
2022-11-25T18:32:30.346Z,12.88
2022-11-25T18:37:29.102Z,14.07
2022-11-25T18:42:28.514Z,14.25
2022-11-25T18:47:27.584Z,14.75
2022-11-25T18:52:26.658Z,14.45
2022-11-25T18:57:25.977Z,15.05
2022-11-25T19:02:24.843Z,23.88
2022-11-25T19:07:23.674Z,15.00
2022-11-25T19:12:22.533Z,14.70
2022-11-25T19:17:24.422Z,15.10
2022-11-25T19:22:24.705Z,13.95
2022-11-25T19:27:24.847Z,14.45
2022-11-25T19:32:28.340Z,14.57
2022-11-25T19:37:30.137Z,14.02
2022-11-25T19:42:31.736Z,14.82
2022-11-25T19:47:30.734Z,13.73
2022-11-25T19:52:38.064Z,21.05
2022-11-25T19:57:36.860Z,14.38
2022-11-25T20:02:36.140Z,14.88
2022-11-25T20:07:35.243Z,16.48
2022-11-25T20:12:34.072Z,14.13
2022-11-25T20:17:35.080Z,15.00
2022-11-25T20:22:37.640Z,17.55
2022-11-25T20:27:36.703Z,15.18
2022-11-25T20:32:35.598Z,14.95
2022-11-25T20:37:40.617Z,15.25
2022-11-25T20:42:39.580Z,15.88
2022-11-25T20:47:39.643Z,16.02
2022-11-25T20:52:39.460Z,15.65
2022-11-25T20:57:38.176Z,14.77
2022-11-25T21:02:37.394Z,14.80
2022-11-25T21:07:36.314Z,15.45
2022-11-25T21:12:35.188Z,15.07
2022-11-25T21:17:34.032Z,15.85
2022-11-25T21:22:36.886Z,14.15
2022-11-25T21:27:40.968Z,14.95
2022-11-25T21:32:40.052Z,15.13
2022-11-25T21:37:40.912Z,14.88
2022-11-25T21:42:39.693Z,15.43
2022-11-25T21:47:38.492Z,14.57
2022-11-25T21:52:40.181Z,12.75
2022-11-25T21:57:39.285Z,13.57
2022-11-25T22:02:38.117Z,15.38
2022-11-25T22:07:36.993Z,16.08
2022-11-25T22:12:41.314Z,15.10
2022-11-25T22:17:40.632Z,15.70
2022-11-25T22:22:39.314Z,13.70
2022-11-25T22:27:39.745Z,14.43
2022-11-25T22:32:38.710Z,15.35
2022-11-25T22:37:37.524Z,13.48
2022-11-25T22:42:37.064Z,14.68
2022-11-25T22:47:47.617Z,13.38
2022-11-25T22:52:46.822Z,15.18
2022-11-25T22:57:46.841Z,13.40
2022-11-25T23:02:46.475Z,14.07
2022-11-25T23:07:45.450Z,12.82
2022-11-25T23:12:44.917Z,9.30
2022-11-25T23:17:58.853Z,9.05
2022-11-25T23:23:01.931Z,9.02
2022-11-25T23:28:00.602Z,9.85
2022-11-25T23:32:59.487Z,8.30
2022-11-25T23:37:58.750Z,8.25
2022-11-25T23:42:57.515Z,10.98
2022-11-25T23:47:56.932Z,8.25
2022-11-25T23:53:01.349Z,8.13
2022-11-25T23:58:02.559Z,8.27
